createdAt,value
2019-01-13T00:01:53.283Z,99245.06
2019-01-13T00:04:57.760Z,99244.09
2019-01-13T00:08:02.293Z,99237.02
2019-01-13T00:11:05.818Z,99236.75
2019-01-13T00:14:09.308Z,99228.59
2019-01-13T00:17:12.798Z,99233.03
2019-01-13T00:20:16.284Z,99230.89
2019-01-13T00:23:19.793Z,99231.98
2019-01-13T00:26:25.384Z,99231.71
2019-01-13T00:29:28.851Z,99226.81
2019-01-13T00:32:32.380Z,99227.87
2019-01-13T00:35:36.887Z,99241.20
2019-01-13T00:38:41.358Z,99231.13
2019-01-13T00:41:47.150Z,99235.56
2019-01-13T00:44:50.641Z,99233.66
2019-01-13T00:47:54.106Z,99235.91
2019-01-13T00:50:57.609Z,99239.05
2019-01-13T00:54:01.152Z,99238.44
2019-01-13T00:57:04.651Z,99223.43
2019-01-13T01:00:11.441Z,99227.28
2019-01-13T01:03:16.936Z,99229.30
2019-01-13T01:06:20.383Z,99233.61
2019-01-13T01:09:23.898Z,99225.19
2019-01-13T01:12:27.494Z,99223.13
2019-01-13T01:15:30.969Z,99212.44
2019-01-13T01:18:35.506Z,99209.45
2019-01-13T01:21:39.024Z,99212.09
2019-01-13T01:24:42.525Z,99214.73
2019-01-13T01:27:45.970Z,99210.03
2019-01-13T01:30:49.422Z,99201.88
2019-01-13T01:33:53.225Z,99208.11
2019-01-13T01:36:56.742Z,99205.59
2019-01-13T01:40:00.248Z,99194.91
2019-01-13T01:43:03.726Z,99192.00
2019-01-13T01:46:07.270Z,99206.06
2019-01-13T01:49:10.739Z,99206.64
2019-01-13T01:52:16.274Z,99205.58
2019-01-13T01:55:20.073Z,99204.49
2019-01-13T01:58:23.595Z,99200.42
2019-01-13T02:01:27.095Z,99198.71
2019-01-13T02:04:30.692Z,99202.55
2019-01-13T02:07:34.223Z,99201.34
2019-01-13T02:10:37.654Z,99202.66
2019-01-13T02:13:42.218Z,99199.31
2019-01-13T02:16:45.706Z,99201.22
2019-01-13T02:19:49.201Z,99201.83
2019-01-13T02:22:53.738Z,99203.16
2019-01-13T02:25:57.168Z,99208.66
2019-01-13T02:29:00.656Z,99202.41
2019-01-13T02:32:04.134Z,99199.27
2019-01-13T02:35:07.933Z,99204.92
2019-01-13T02:38:11.450Z,99189.31
2019-01-13T02:41:15.962Z,99184.62
2019-01-13T02:44:19.468Z,99181.16
2019-01-13T02:47:22.990Z,99186.55
2019-01-13T02:50:26.461Z,99182.47
2019-01-13T02:53:29.970Z,99184.49
2019-01-13T02:56:34.501Z,99184.14
2019-01-13T02:59:38.006Z,99183.05
2019-01-13T03:02:41.510Z,99194.56
2019-01-13T03:05:45.005Z,99190.11
2019-01-13T03:08:48.516Z,99191.55
2019-01-13T03:11:53.241Z,99198.64
2019-01-13T03:14:56.723Z,99192.84
2019-01-13T03:18:01.271Z,99179.92
2019-01-13T03:21:04.705Z,99186.52
2019-01-13T03:24:08.159Z,99175.12
2019-01-13T03:27:11.778Z,99165.03
2019-01-13T03:30:20.058Z,99175.81
2019-01-13T03:33:24.511Z,99179.41
2019-01-13T03:36:27.980Z,99174.72
2019-01-13T03:39:31.512Z,99174.14
2019-01-13T03:42:36.018Z,99177.35
2019-01-13T03:45:39.504Z,99182.16
2019-01-13T03:48:43.025Z,99176.03
2019-01-13T03:51:48.576Z,99178.08
2019-01-13T03:54:52.022Z,99180.60
2019-01-13T03:57:55.474Z,99174.36
2019-01-13T04:00:58.970Z,99167.98
2019-01-13T04:04:02.482Z,99175.09
2019-01-13T04:07:05.969Z,99171.59
2019-01-13T04:10:10.081Z,99166.20
2019-01-13T04:13:13.610Z,99162.36
2019-01-13T04:16:17.082Z,99167.17
2019-01-13T04:19:20.586Z,99168.22
2019-01-13T04:22:24.120Z,99154.09
2019-01-13T04:25:27.560Z,99162.23
2019-01-13T04:28:31.196Z,99162.42
2019-01-13T04:31:34.631Z,99164.02
2019-01-13T04:34:38.093Z,99168.83
2019-01-13T04:37:41.697Z,99168.05
2019-01-13T04:40:47.258Z,99162.07
2019-01-13T04:43:50.787Z,99147.56
2019-01-13T04:46:56.308Z,99161.94
2019-01-13T04:49:59.907Z,99159.05
2019-01-13T04:53:03.566Z,99148.75
2019-01-13T04:56:08.007Z,99142.40
2019-01-13T04:59:12.547Z,99146.83
2019-01-13T05:02:16.085Z,99137.81
2019-01-13T05:05:19.550Z,99147.66
2019-01-13T05:08:23.062Z,99144.17
2019-01-13T05:11:27.588Z,99148.02
2019-01-13T05:14:31.083Z,99142.38
2019-01-13T05:17:34.586Z,99139.74
2019-01-13T05:20:40.138Z,99143.92
2019-01-13T05:23:43.447Z,99139.58
2019-01-13T05:26:46.907Z,99141.29
2019-01-13T05:29:50.427Z,99139.47
2019-01-13T05:32:54.949Z,99146.56
2019-01-13T05:35:58.461Z,99136.95
2019-01-13T05:39:04.392Z,99130.61
2019-01-13T05:42:09.953Z,99126.66
2019-01-13T05:45:14.682Z,99126.77
2019-01-13T05:48:19.210Z,99129.52
2019-01-13T05:51:22.706Z,99137.42
2019-01-13T05:54:26.228Z,99137.04
2019-01-13T05:57:29.656Z,99133.94
2019-01-13T06:00:36.943Z,99126.14
2019-01-13T06:03:40.421Z,99132.48
2019-01-13T06:06:43.891Z,99126.00
2019-01-13T06:09:47.406Z,99130.70
2019-01-13T06:12:50.888Z,99131.05
2019-01-13T06:15:54.412Z,99128.42
2019-01-13T06:18:57.875Z,99132.48
2019-01-13T06:22:02.140Z,99132.48
2019-01-13T06:25:05.726Z,99129.96
2019-01-13T06:28:15.061Z,99130.92
2019-01-13T06:31:18.606Z,99132.59
2019-01-13T06:34:22.070Z,99126.47
2019-01-13T06:37:25.557Z,99131.86
2019-01-13T06:40:29.181Z,99130.92
2019-01-13T06:43:32.677Z,99126.84
2019-01-13T06:46:36.151Z,99130.80
2019-01-13T06:49:39.594Z,99125.02
2019-01-13T06:52:43.073Z,99120.83
2019-01-13T06:55:46.560Z,99114.48
2019-01-13T06:58:50.203Z,99120.60
2019-01-13T07:01:54.683Z,99125.13
2019-01-13T07:04:58.246Z,99119.97
2019-01-13T07:08:01.695Z,99124.42
2019-01-13T07:11:05.133Z,99128.38
2019-01-13T07:14:08.597Z,99118.17
2019-01-13T07:17:12.096Z,99122.01
2019-01-13T07:20:17.439Z,99119.73
2019-01-13T07:23:20.938Z,99124.29
2019-01-13T07:26:24.435Z,99106.77
2019-01-13T07:29:27.941Z,99105.09
2019-01-13T07:32:31.541Z,99108.31
2019-01-13T07:35:34.977Z,99096.20
2019-01-13T07:38:38.441Z,99089.50
2019-01-13T07:41:41.942Z,99082.56
2019-01-13T07:44:45.443Z,99085.91
2019-01-13T07:47:49.055Z,99081.95
2019-01-13T07:50:52.547Z,99081.02
2019-01-13T07:53:56.038Z,99074.43
2019-01-13T07:56:59.582Z,99067.45
2019-01-13T08:00:03.052Z,99066.14
2019-01-13T08:03:07.156Z,99061.72
2019-01-13T08:06:10.610Z,99059.19
2019-01-13T08:09:14.072Z,99067.84
2019-01-13T08:12:17.558Z,99062.18
2019-01-13T08:15:21.244Z,99064.81
2019-01-13T08:18:24.681Z,99064.46
2019-01-13T08:21:28.141Z,99052.60
2019-01-13T08:24:31.675Z,99049.61
2019-01-13T08:27:35.152Z,99052.83
2019-01-13T08:30:39.704Z,99033.41
2019-01-13T08:33:43.142Z,99031.16
2019-01-13T08:36:46.596Z,99042.64
2019-01-13T08:39:50.124Z,99029.46
2019-01-13T08:42:53.693Z,99032.09
2019-01-13T08:45:58.235Z,99021.55
2019-01-13T08:49:02.757Z,99004.06
2019-01-13T08:52:06.255Z,98994.13
2019-01-13T08:55:10.788Z,98997.01
2019-01-13T08:58:14.277Z,98992.20
2019-01-13T09:01:17.791Z,98981.09
2019-01-13T09:04:22.360Z,98988.53
2019-01-13T09:07:25.825Z,98977.99
2019-01-13T09:10:30.413Z,98966.13
2019-01-13T09:13:34.171Z,98972.45
2019-01-13T09:16:37.643Z,98955.33
2019-01-13T09:19:41.356Z,98946.71
2019-01-13T09:22:44.942Z,98943.84
2019-01-13T09:25:50.517Z,98939.89
2019-01-13T09:28:53.948Z,98937.14
2019-01-13T09:31:57.502Z,98937.95
2019-01-13T09:35:01.004Z,98928.14
2019-01-13T09:38:04.581Z,98909.69
2019-01-13T09:41:08.215Z,98907.76
2019-01-13T09:44:11.711Z,98915.31
2019-01-13T09:47:17.261Z,98904.66
2019-01-13T09:50:21.140Z,98904.19
2019-01-13T09:53:25.704Z,98880.81
2019-01-13T09:56:30.211Z,98879.25
2019-01-13T09:59:33.765Z,98878.64
2019-01-13T10:02:38.238Z,98872.78
2019-01-13T10:05:41.742Z,98864.98
2019-01-13T10:08:45.272Z,98861.27
2019-01-13T10:11:49.763Z,98854.08
2019-01-13T10:14:53.264Z,98843.89
2019-01-13T10:17:56.775Z,98840.66
2019-01-13T10:21:00.277Z,98826.16
2019-01-13T10:24:04.822Z,98834.42
2019-01-13T10:27:08.413Z,98823.41
2019-01-13T10:30:15.108Z,98813.32
2019-01-13T10:33:18.589Z,98804.82
2019-01-13T10:36:22.094Z,98801.80
2019-01-13T10:39:25.580Z,98784.08
2019-01-13T10:42:29.115Z,98774.84
2019-01-13T10:45:32.576Z,98777.59
2019-01-13T10:48:36.171Z,98770.02
2019-01-13T10:51:39.776Z,98771.22
2019-01-13T10:54:43.594Z,98769.08
2019-01-13T10:57:48.328Z,98754.58
2019-01-13T11:00:51.960Z,98749.66
2019-01-13T11:03:55.449Z,98745.81
2019-01-13T11:06:59.041Z,98734.17
2019-01-13T11:10:02.710Z,98729.14
2019-01-13T11:13:06.403Z,98722.83
2019-01-13T11:16:10.082Z,98711.09
2019-01-13T11:19:14.673Z,98691.18
2019-01-13T11:22:18.476Z,98683.98
2019-01-13T11:25:21.982Z,98663.73
2019-01-13T11:28:25.596Z,98668.04
2019-01-13T11:31:30.217Z,98653.19
2019-01-13T11:34:33.736Z,98646.95
2019-01-13T11:37:38.194Z,98647.41
2019-01-13T11:40:41.770Z,98631.97
2019-01-13T11:43:45.224Z,98614.33
2019-01-13T11:46:48.714Z,98610.03
2019-01-13T11:49:52.278Z,98594.08
2019-01-13T11:53:00.085Z,98593.23
2019-01-13T11:56:03.941Z,98578.26
2019-01-13T11:59:07.554Z,98573.11
2019-01-13T12:02:11.210Z,98556.31
2019-01-13T12:05:14.818Z,98557.03
2019-01-13T12:08:18.341Z,98546.48
2019-01-13T12:11:21.828Z,98542.19
2019-01-13T12:14:25.346Z,98535.09
2019-01-13T12:17:29.948Z,98537.98
2019-01-13T12:20:33.434Z,98519.39
2019-01-13T12:23:38.028Z,98513.18
2019-01-13T12:26:41.676Z,98501.78
2019-01-13T12:29:45.181Z,98496.64
2019-01-13T12:32:48.726Z,98489.91
2019-01-13T12:35:52.210Z,98482.48
2019-01-13T12:38:55.887Z,98462.36
2019-01-13T12:41:59.387Z,98467.98
2019-01-13T12:45:07.144Z,98451.47
2019-01-13T12:48:10.761Z,98432.63
2019-01-13T12:51:14.526Z,98428.80
2019-01-13T12:54:19.004Z,98402.05
2019-01-13T12:57:22.497Z,98397.62
2019-01-13T13:00:25.958Z,98391.63
2019-01-13T13:03:31.810Z,98383.25
2019-01-13T13:06:34.761Z,98370.67
2019-01-13T13:09:38.338Z,98355.83
2019-01-13T13:12:41.902Z,98339.41
2019-01-13T13:15:45.436Z,98332.17
2019-01-13T13:18:50.059Z,98323.45
2019-01-13T13:21:53.645Z,98310.40
2019-01-13T13:24:57.255Z,98302.63
2019-01-13T13:28:00.858Z,98305.39
2019-01-13T13:31:04.351Z,98284.30
2019-01-13T13:34:08.004Z,98273.75
2019-01-13T13:37:13.748Z,98271.92
2019-01-13T13:40:21.767Z,98251.68
2019-01-13T13:43:33.672Z,98249.38
2019-01-13T13:46:37.358Z,98241.84
2019-01-13T13:49:41.091Z,98229.61
2019-01-13T13:52:45.708Z,98220.95
2019-01-13T13:55:50.259Z,98222.61
2019-01-13T13:58:54.002Z,98220.31
2019-01-13T14:01:57.706Z,98202.50
2019-01-13T14:05:01.416Z,98197.09
2019-01-13T14:08:07.127Z,98196.75
2019-01-13T14:11:10.644Z,98182.31
2019-01-13T14:14:16.185Z,98184.95
2019-01-13T14:17:20.028Z,98181.33
2019-01-13T14:20:23.548Z,98169.80
2019-01-13T14:23:29.122Z,98162.30
2019-01-13T14:26:32.597Z,98159.99
2019-01-13T14:29:36.114Z,98141.53
2019-01-13T14:32:39.649Z,98147.79
2019-01-13T14:35:43.305Z,98147.79
2019-01-13T14:38:46.788Z,98140.55
2019-01-13T14:41:50.324Z,98132.88
2019-01-13T14:44:53.968Z,98107.36
2019-01-13T14:47:57.587Z,98112.19
2019-01-13T14:51:01.102Z,98111.55
2019-01-13T14:54:04.742Z,98107.92
2019-01-13T14:57:08.232Z,98105.29
2019-01-13T15:00:20.205Z,98105.66
2019-01-13T15:03:23.852Z,98083.10
2019-01-13T15:06:27.410Z,98085.51
2019-01-13T15:09:31.089Z,98091.77
2019-01-13T15:12:34.727Z,98093.79
2019-01-13T15:15:38.269Z,98097.04
2019-01-13T15:18:41.747Z,98091.16
2019-01-13T15:21:45.292Z,98085.23
2019-01-13T15:24:49.061Z,98098.08
2019-01-13T15:27:52.755Z,98074.34
2019-01-13T15:30:56.249Z,98081.41
2019-01-13T15:34:07.199Z,98078.30
2019-01-13T15:37:07.134Z,98089.56
2019-01-13T15:40:12.452Z,98085.23
2019-01-13T15:43:16.184Z,98073.88
2019-01-13T15:46:21.109Z,98072.55
2019-01-13T15:49:24.769Z,98072.41
2019-01-13T15:52:28.430Z,98066.16
2019-01-13T15:55:32.011Z,98057.55
2019-01-13T15:58:35.670Z,98057.06
2019-01-13T16:01:39.148Z,98047.36
2019-01-13T16:04:42.679Z,98037.00
2019-01-13T16:07:46.139Z,98041.10
2019-01-13T16:10:49.727Z,98019.67
2019-01-13T16:13:53.339Z,97999.19
2019-01-13T16:16:57.883Z,97996.94
2019-01-13T16:20:01.371Z,98012.70
2019-01-13T16:23:05.079Z,98017.70
2019-01-13T16:26:09.589Z,98017.70
2019-01-13T16:29:13.122Z,98006.17
2019-01-13T16:32:16.601Z,97992.98
2019-01-13T16:35:23.246Z,97986.75
2019-01-13T16:38:26.916Z,97993.34
2019-01-13T16:41:30.388Z,97977.16
2019-01-13T16:44:33.901Z,97962.65
2019-01-13T16:47:37.373Z,97957.38
2019-01-13T16:50:40.897Z,97946.83
2019-01-13T16:53:44.388Z,97942.87
2019-01-13T16:56:48.904Z,97926.91
2019-01-13T16:59:52.392Z,97915.55
2019-01-13T17:02:55.891Z,97922.47
2019-01-13T17:05:59.413Z,97911.08
2019-01-13T17:09:04.256Z,97904.16
2019-01-13T17:12:07.676Z,97901.03
2019-01-13T17:15:14.472Z,97883.89
2019-01-13T17:18:18.937Z,97883.09
2019-01-13T17:21:22.474Z,97870.05
2019-01-13T17:24:26.157Z,97871.38
2019-01-13T17:27:29.675Z,97868.41
2019-01-13T17:30:36.523Z,97867.41
2019-01-13T17:33:40.137Z,97870.89
2019-01-13T17:36:44.655Z,97852.91
2019-01-13T17:39:50.245Z,97853.90
2019-01-13T17:42:53.851Z,97842.36
2019-01-13T17:45:57.718Z,97835.14
2019-01-13T17:49:01.356Z,97828.22
2019-01-13T17:52:06.974Z,97823.90
2019-01-13T17:55:13.221Z,97821.27
2019-01-13T17:58:16.738Z,97824.27
2019-01-13T18:01:31.709Z,97820.97
2019-01-13T18:04:35.237Z,97804.81
2019-01-13T18:07:38.710Z,97790.30
2019-01-13T18:10:42.293Z,97786.34
2019-01-13T18:13:46.766Z,97774.63
2019-01-13T18:16:51.267Z,97776.13
2019-01-13T18:19:54.767Z,97753.23
2019-01-13T18:22:59.501Z,97756.02
2019-01-13T18:26:03.152Z,97748.95
2019-01-13T18:29:06.718Z,97752.39
2019-01-13T18:32:10.218Z,97745.66
2019-01-13T18:35:16.887Z,97749.28
2019-01-13T18:38:22.558Z,97736.42
2019-01-13T18:41:26.060Z,97727.70
2019-01-13T18:44:30.557Z,97725.06
2019-01-13T18:47:34.127Z,97728.66
2019-01-13T18:50:37.589Z,97712.83
2019-01-13T18:53:41.066Z,97716.78
2019-01-13T18:56:44.572Z,97710.19
2019-01-13T18:59:48.125Z,97702.58
2019-01-13T19:02:51.757Z,97700.00
2019-01-13T19:05:55.269Z,97705.76
2019-01-13T19:09:06.865Z,97699.49
2019-01-13T19:12:10.310Z,97694.37
2019-01-13T19:15:13.764Z,97688.14
2019-01-13T19:18:17.264Z,97680.38
2019-01-13T19:21:20.756Z,97670.98
2019-01-13T19:24:24.327Z,97669.67
2019-01-13T19:27:27.972Z,97663.56
2019-01-13T19:30:32.511Z,97657.95
2019-01-13T19:33:38.041Z,97661.07
2019-01-13T19:36:41.558Z,97654.80
2019-01-13T19:39:45.057Z,97655.16
2019-01-13T19:42:48.627Z,97655.16
2019-01-13T19:45:52.262Z,97652.17
2019-01-13T19:48:55.784Z,97640.66
2019-01-13T19:52:00.285Z,97627.95
2019-01-13T19:55:04.378Z,97635.39
2019-01-13T19:58:08.838Z,97619.86
2019-01-13T20:01:13.468Z,97638.33
2019-01-13T20:04:16.939Z,97642.45
2019-01-13T20:07:20.489Z,97650.52
2019-01-13T20:10:23.944Z,97661.84
2019-01-13T20:13:27.378Z,97691.37
2019-01-13T20:16:30.972Z,97701.92
2019-01-13T20:19:35.461Z,97705.52
2019-01-13T20:22:38.975Z,97718.70
2019-01-13T20:25:42.539Z,97732.21
2019-01-13T20:28:46.176Z,97731.81
2019-01-13T20:31:51.740Z,97737.34
2019-01-13T20:34:55.241Z,97738.63
2019-01-13T20:38:00.775Z,97754.89
2019-01-13T20:41:04.342Z,97754.99
2019-01-13T20:44:07.788Z,97765.54
2019-01-13T20:47:13.359Z,97764.88
2019-01-13T20:50:16.870Z,97776.05
2019-01-13T20:53:20.349Z,97774.53
2019-01-13T20:56:24.900Z,97773.03
2019-01-13T20:59:28.362Z,97759.70
2019-01-13T21:02:31.886Z,97779.91
2019-01-13T21:05:35.396Z,97776.24
2019-01-13T21:08:38.865Z,97785.28
2019-01-13T21:11:42.320Z,97787.41
2019-01-13T21:14:45.768Z,97798.23
2019-01-13T21:17:49.351Z,97786.70
2019-01-13T21:20:52.899Z,97797.23
2019-01-13T21:23:58.416Z,97788.30
2019-01-13T21:27:01.916Z,97780.03
2019-01-13T21:30:08.511Z,97790.56
2019-01-13T21:33:11.960Z,97796.97
2019-01-13T21:36:15.527Z,97789.91
2019-01-13T21:39:24.946Z,97795.17
2019-01-13T21:42:28.442Z,97796.13
2019-01-13T21:45:33.990Z,97796.44
2019-01-13T21:48:37.494Z,97792.27
2019-01-13T21:51:40.983Z,97795.75
2019-01-13T21:54:44.475Z,97790.95
2019-01-13T21:57:47.999Z,97795.75
2019-01-13T22:00:52.532Z,97780.22
2019-01-13T22:03:56.075Z,97786.95
2019-01-13T22:06:59.729Z,97790.09
2019-01-13T22:10:03.235Z,97797.63
2019-01-13T22:13:08.773Z,97786.06
2019-01-13T22:16:14.354Z,97795.79
2019-01-13T22:19:17.917Z,97793.02
2019-01-13T22:22:21.435Z,97790.37
2019-01-13T22:25:33.005Z,97772.41
2019-01-13T22:28:36.515Z,97784.74
2019-01-13T22:31:41.061Z,97793.96
2019-01-13T22:34:44.547Z,97802.52
2019-01-13T22:37:55.883Z,97785.39
2019-01-13T22:40:59.954Z,97778.61
2019-01-13T22:44:05.487Z,97781.39
2019-01-13T22:47:08.919Z,97784.02
2019-01-13T22:50:12.993Z,97786.80
2019-01-13T22:53:16.493Z,97777.08
2019-01-13T22:56:20.005Z,97784.50
2019-01-13T22:59:23.457Z,97785.96
2019-01-13T23:02:27.151Z,97786.94
2019-01-13T23:05:30.699Z,97793.16
2019-01-13T23:08:34.325Z,97801.71
2019-01-13T23:11:38.016Z,97798.23
2019-01-13T23:14:41.451Z,97803.64
2019-01-13T23:17:45.038Z,97800.67
2019-01-13T23:20:50.112Z,97808.58
2019-01-13T23:23:53.670Z,97802.33
2019-01-13T23:26:58.130Z,97811.21
2019-01-13T23:30:01.674Z,97805.95
2019-01-13T23:33:05.190Z,97817.46
2019-01-13T23:36:08.685Z,97813.52
2019-01-13T23:39:14.234Z,97816.09
2019-01-13T23:42:17.732Z,97821.36
2019-01-13T23:45:22.253Z,97814.41
2019-01-13T23:48:25.765Z,97823.15
2019-01-13T23:51:29.269Z,97825.45
2019-01-13T23:54:32.692Z,97835.47
2019-01-13T23:57:36.294Z,97834.52
